Time;durP1;ratioP1;P1;durP2;ratioP2;P2;SDS_P1;SDS_P2;PMS_P1;PMS_P2;Temp;Humidity;BMP_temperature;BMP_pressure;BME280_temperature;BME280_humidity;BME280_pressure;Samples;Min_cycle;Max_cycle;Signal;HPM_P1;HPM_P2
2021/11/11 00:01:23;;;;;;;22.27;15.25;;;;;;;1.55;nan;101265.47;4992471;28;20057;-76
2021/11/11 00:03:49;;;;;;;23.63;15.88;;;;;;;1.49;nan;101277.00;4990549;28;20100;-76
2021/11/11 00:06:14;;;;;;;22.38;15.27;;;;;;;1.44;nan;101280.78;4991345;28;20057;-76
2021/11/11 00:08:40;;;;;;;22.70;14.50;;;;;;;1.28;nan;101281.50;4992566;28;20100;-75
2021/11/11 00:11:06;;;;;;;20.27;15.10;;;;;;;1.18;nan;101287.22;4992367;28;20447;-75
2021/11/11 00:13:31;;;;;;;19.13;13.73;;;;;;;1.11;nan;101291.03;4992316;28;20193;-75
2021/11/11 00:15:56;;;;;;;18.83;13.23;;;;;;;1.10;nan;101291.94;4992112;28;20034;-76
2021/11/11 00:18:22;;;;;;;21.42;13.93;;;;;;;1.01;nan;101288.88;4991419;28;20141;-76
2021/11/11 00:20:48;;;;;;;19.63;14.38;;;;;;;0.92;nan;101291.06;4992297;28;20121;-75
2021/11/11 00:23:13;;;;;;;19.33;14.18;;;;;;;0.85;nan;101291.31;4991398;28;20027;-75
2021/11/11 00:25:38;;;;;;;17.08;12.90;;;;;;;0.80;nan;101287.25;4991599;28;20049;-75
2021/11/11 00:28:05;;;;;;;16.98;12.02;;;;;;;0.75;nan;101291.84;4993748;28;20589;-75
2021/11/11 00:30:30;;;;;;;21.10;13.75;;;;;;;0.84;nan;101291.41;4990793;28;20045;-75
2021/11/11 00:32:56;;;;;;;15.85;11.38;;;;;;;0.69;nan;101279.06;4990936;28;20030;-75
2021/11/11 00:35:24;;;;;;;19.60;14.20;;;;;;;0.52;nan;101270.28;4991406;28;20072;-75
2021/11/11 00:37:52;;;;;;;16.80;12.80;;;;;;;0.45;nan;101260.22;4989473;28;20268;-75
2021/11/11 00:40:17;;;;;;;16.25;12.63;;;;;;;0.44;nan;101264.59;4988637;28;20030;-75
2021/11/11 00:42:45;;;;;;;17.25;12.55;;;;;;;0.37;nan;101251.00;4991603;28;20092;-75
2021/11/11 00:45:11;;;;;;;19.58;14.10;;;;;;;0.34;nan;101250.31;4991348;28;20047;-76
2021/11/11 00:47:36;;;;;;;20.42;13.98;;;;;;;0.29;nan;101249.66;4991145;28;20044;-75
2021/11/11 00:50:05;;;;;;;20.08;14.13;;;;;;;0.24;nan;101239.47;4994463;28;20368;-75
2021/11/11 00:52:31;;;;;;;20.33;14.18;;;;;;;0.20;nan;101246.53;4990723;28;20148;-75
2021/11/11 00:54:57;;;;;;;17.30;12.50;;;;;;;0.17;nan;101254.50;4989482;28;20065;-76
2021/11/11 00:57:22;;;;;;;19.10;13.82;;;;;;;0.10;nan;101249.63;4990932;28;20031;-76
2021/11/11 00:59:48;;;;;;;18.30;12.85;;;;;;;0.10;nan;101254.84;4989421;28;20062;-75
2021/11/11 01:02:13;;;;;;;18.45;14.05;;;;;;;0.08;nan;101260.09;4990870;28;20118;-76
2021/11/11 01:04:39;;;;;;;19.25;13.63;;;;;;;0.12;nan;101253.84;4990696;28;20417;-76
2021/11/11 01:07:07;;;;;;;19.58;13.77;;;;;;;0.16;nan;101264.94;4990446;28;20122;-76
2021/11/11 01:09:32;;;;;;;20.80;14.90;;;;;;;0.16;nan;101264.94;4990884;28;20034;-76
2021/11/11 01:11:58;;;;;;;19.83;14.55;;;;;;;0.18;nan;101266.56;4991254;28;20121;-76
2021/11/11 01:14:24;;;;;;;19.27;13.90;;;;;;;0.15;nan;101263.28;4989761;28;20030;-76
2021/11/11 01:16:49;;;;;;;19.55;14.60;;;;;;;0.08;nan;101254.88;4988548;28;20038;-76
2021/11/11 01:19:15;;;;;;;20.77;13.85;;;;;;;0.06;nan;101253.28;4990707;28;20046;-76
2021/11/11 01:21:41;;;;;;;20.98;14.90;;;;;;;0.04;nan;101261.13;4995707;28;20050;-76
2021/11/11 01:24:06;;;;;;;19.58;13.90;;;;;;;0.03;nan;101259.44;4989814;28;20406;-76
2021/11/11 01:26:31;;;;;;;21.55;15.05;;;;;;;0.01;nan;101256.06;4991198;28;20503;-76
2021/11/11 01:28:57;;;;;;;20.50;14.90;;;;;;;-0.02;nan;101257.03;4999178;28;20117;-76
2021/11/11 01:31:22;;;;;;;19.88;13.90;;;;;;;-0.03;nan;101244.09;4990426;28;20077;-76
2021/11/11 01:33:47;;;;;;;18.58;13.52;;;;;;;0.02;nan;101255.13;4988951;28;20053;-76
2021/11/11 01:36:13;;;;;;;20.38;14.38;;;;;;;-0.01;nan;101256.13;4989866;28;20031;-76
2021/11/11 01:38:38;;;;;;;20.23;14.27;;;;;;;-0.04;nan;101252.81;4990447;28;20127;-76
2021/11/11 01:41:05;;;;;;;20.50;14.23;;;;;;;-0.09;nan;101252.19;4990072;28;20038;-76
2021/11/11 01:43:30;;;;;;;17.75;14.35;;;;;;;-0.13;nan;101254.06;4990251;28;20035;-76
2021/11/11 01:45:55;;;;;;;19.38;13.63;;;;;;;-0.14;nan;101251.50;4989666;28;20125;-76
2021/11/11 01:48:21;;;;;;;20.67;14.25;;;;;;;-0.05;nan;101249.38;4989572;28;20499;-76
2021/11/11 01:50:46;;;;;;;20.05;14.18;;;;;;;-0.11;nan;101247.03;4993396;28;20109;-76
2021/11/11 01:53:14;;;;;;;19.95;14.05;;;;;;;-0.16;nan;101249.00;4989837;28;20478;-76
2021/11/11 01:55:41;;;;;;;21.67;14.93;;;;;;;-0.16;nan;101248.16;4988658;28;20042;-76
2021/11/11 01:58:07;;;;;;;18.92;13.93;;;;;;;-0.21;nan;101245.75;4989793;28;20046;-76
2021/11/11 02:00:38;;;;;;;21.48;14.80;;;;;;;-0.21;nan;101253.53;4987841;28;20458;-76
2021/11/11 02:03:06;;;;;;;20.10;14.98;;;;;;;-0.22;nan;101252.66;4989338;28;20060;-76
2021/11/11 02:05:33;;;;;;;21.10;14.63;;;;;;;-0.18;nan;101260.38;4989098;28;20030;-76
2021/11/11 02:07:58;;;;;;;19.48;14.43;;;;;;;-0.22;nan;101252.66;4989836;28;20041;-76
2021/11/11 02:10:25;;;;;;;22.85;14.88;;;;;;;-0.24;nan;101257.13;4989176;28;20034;-76
2021/11/11 02:12:51;;;;;;;;;;;;;;;-0.28;nan;101255.56;4990275;28;20034;-76
2021/11/11 02:15:19;;;;;;;18.90;13.90;;;;;;;-0.23;nan;101250.16;4989386;28;20045;-76
2021/11/11 02:17:45;;;;;;;18.00;13.32;;;;;;;-0.20;nan;101241.38;4991409;28;20521;-76
2021/11/11 02:20:20;;;;;;;18.08;13.38;;;;;;;-0.29;nan;101232.22;4989709;28;20034;-76
2021/11/11 02:22:46;;;;;;;20.65;14.43;;;;;;;-0.34;nan;101235.00;4989258;28;20043;-76
2021/11/11 02:25:14;;;;;;;18.42;13.68;;;;;;;-0.38;nan;101223.06;4991255;28;20046;-76
2021/11/11 02:27:40;;;;;;;21.10;15.27;;;;;;;-0.42;nan;101226.69;4989215;28;20125;-76
2021/11/11 02:30:08;;;;;;;19.33;14.15;;;;;;;-0.44;nan;101231.94;4989108;28;20030;-76
2021/11/11 02:32:35;;;;;;;19.55;13.88;;;;;;;-0.47;nan;101229.50;4987404;28;20049;-77
2021/11/11 02:35:01;;;;;;;20.48;14.73;;;;;;;-0.51;nan;101225.31;4989244;28;20039;-76
2021/11/11 02:37:28;;;;;;;18.77;13.93;;;;;;;-0.51;nan;101217.53;4986013;28;20037;-76
2021/11/11 02:39:54;;;;;;;20.67;14.23;;;;;;;-0.47;nan;101215.66;4989184;28;20042;-76
2021/11/11 02:42:20;;;;;;;21.55;14.95;;;;;;;-0.50;nan;101221.84;4986903;28;20035;-76
2021/11/11 02:44:45;;;;;;;18.75;14.50;;;;;;;-0.50;nan;101228.75;4987439;28;20042;-76
2021/11/11 02:47:11;;;;;;;20.13;13.75;;;;;;;-0.54;nan;101228.06;4989615;28;20045;-76
2021/11/11 02:49:36;;;;;;;17.88;13.75;;;;;;;-0.58;nan;101220.44;4992663;28;20093;-76
2021/11/11 02:52:03;;;;;;;17.75;13.60;;;;;;;-0.64;nan;101226.75;4989521;28;20041;-76
2021/11/11 02:54:29;;;;;;;18.25;13.52;;;;;;;-0.65;nan;101222.44;4987514;28;20030;-76
2021/11/11 02:56:54;;;;;;;18.40;13.25;;;;;;;-0.70;nan;101216.59;4987907;28;20057;-76
2021/11/11 02:59:19;;;;;;;19.38;13.45;;;;;;;-0.73;nan;101211.53;4989133;28;20042;-76
2021/11/11 03:01:45;;;;;;;19.48;14.20;;;;;;;-0.70;nan;101224.38;4987980;28;20035;-76
2021/11/11 03:04:10;;;;;;;18.15;13.23;;;;;;;-0.73;nan;101221.94;4990334;28;20427;-77
2021/11/11 03:06:39;;;;;;;17.55;13.35;;;;;;;-0.72;nan;101221.00;4993136;28;20030;-76
2021/11/11 03:09:04;;;;;;;35.47;16.05;;;;;;;-0.66;nan;101229.41;4992059;28;20045;-76
2021/11/11 03:11:30;;;;;;;24.17;14.48;;;;;;;-0.72;nan;101221.84;4993479;28;20442;-76
2021/11/11 03:13:56;;;;;;;19.60;13.43;;;;;;;-0.73;nan;101225.38;4992787;28;20042;-76
2021/11/11 03:16:21;;;;;;;24.88;14.65;;;;;;;-0.70;nan;101229.59;4994601;28;20042;-76
2021/11/11 03:18:47;;;;;;;30.10;16.02;;;;;;;-0.74;nan;101236.66;4992989;28;20117;-76
2021/11/11 03:21:12;;;;;;;19.08;13.40;;;;;;;-0.84;nan;101240.53;4993813;28;20034;-76
2021/11/11 03:23:37;;;;;;;25.17;13.93;;;;;;;-0.78;nan;101235.09;4992864;28;20053;-76
2021/11/11 03:26:03;;;;;;;21.20;14.77;;;;;;;-0.76;nan;101243.66;4992587;28;20038;-76
2021/11/11 03:28:28;;;;;;;18.48;13.48;;;;;;;-0.78;nan;101242.88;4999677;28;20034;-76
2021/11/11 03:30:54;;;;;;;18.67;13.82;;;;;;;-0.78;nan;101239.44;4992842;28;20402;-76
2021/11/11 03:33:19;;;;;;;19.17;13.32;;;;;;;-0.67;nan;101245.03;4991974;28;20301;-76
2021/11/11 03:35:45;;;;;;;20.40;12.80;;;;;;;-0.58;nan;101246.41;4992885;28;20096;-77
2021/11/11 03:38:11;;;;;;;18.23;12.25;;;;;;;-0.49;nan;101248.66;4992305;28;20269;-76
2021/11/11 03:40:40;;;;;;;19.42;13.73;;;;;;;-0.37;nan;101234.31;4992536;28;20411;-76
2021/11/11 03:43:06;;;;;;;19.95;14.43;;;;;;;-0.32;nan;101233.19;4991345;28;20030;-76
2021/11/11 03:45:33;;;;;;;20.63;14.20;;;;;;;-0.18;nan;101234.38;4991780;28;20137;-76
2021/11/11 03:47:59;;;;;;;22.98;15.35;;;;;;;-0.14;nan;101230.72;4992714;28;20022;-77
2021/11/11 03:50:25;;;;;;;21.55;15.27;;;;;;;-0.17;nan;101228.25;4994717;28;20038;-76
2021/11/11 03:52:51;;;;;;;21.35;14.93;;;;;;;-0.16;nan;101224.75;4990980;28;20038;-76
2021/11/11 03:55:21;;;;;;;21.23;14.93;;;;;;;-0.15;nan;101229.03;4993271;28;20081;-76
2021/11/11 03:57:47;;;;;;;21.98;15.05;;;;;;;-0.13;nan;101222.03;4993665;28;20034;-77
2021/11/11 04:00:15;;;;;;;21.55;14.68;;;;;;;-0.09;nan;101228.78;4987708;28;20525;-76
2021/11/11 04:02:41;;;;;;;19.55;13.88;;;;;;;0.03;nan;101224.81;4992411;28;20045;-77
2021/11/11 04:05:07;;;;;;;18.10;13.73;;;;;;;0.10;nan;101216.66;4990890;28;20250;-76
2021/11/11 04:07:32;;;;;;;21.23;14.10;;;;;;;0.16;nan;101225.94;4999317;28;20038;-76
2021/11/11 04:09:57;;;;;;;17.50;13.30;;;;;;;0.06;nan;101224.66;4991938;28;20248;-76
2021/11/11 04:12:23;;;;;;;18.40;12.65;;;;;;;-0.05;nan;101226.00;4991040;28;20066;-76
2021/11/11 04:14:48;;;;;;;19.60;13.88;;;;;;;-0.16;nan;101232.56;4990634;28;20446;-76
2021/11/11 04:17:13;;;;;;;19.65;13.00;;;;;;;-0.18;nan;101243.00;4991038;28;20041;-76
2021/11/11 04:19:39;;;;;;;20.00;14.35;;;;;;;-0.26;nan;101232.94;4989592;28;20117;-76
2021/11/11 04:22:05;;;;;;;18.63;13.23;;;;;;;-0.26;nan;101238.16;4989931;28;20096;-76
2021/11/11 04:24:31;;;;;;;18.52;13.50;;;;;;;-0.15;nan;101232.47;4989067;28;20365;-76
2021/11/11 04:27:02;;;;;;;20.30;12.23;;;;;;;-0.07;nan;101235.59;4990735;28;20096;-76
2021/11/11 04:29:30;;;;;;;19.15;13.18;;;;;;;-0.02;nan;101244.03;4998318;28;20118;-76
2021/11/11 04:32:01;;;;;;;31.38;15.75;;;;;;;0.04;nan;101242.94;4989776;28;20062;-76
2021/11/11 04:34:29;;;;;;;25.02;13.88;;;;;;;-0.05;nan;101240.72;4990246;28;20037;-76
2021/11/11 04:40:05;;;;;;;18.95;12.73;;;;;;;-0.03;nan;101234.53;4989626;28;20057;-76
2021/11/11 04:45:53;;;;;;;30.85;15.20;;;;;;;-0.12;nan;101252.28;4989136;28;20042;-76
2021/11/11 05:04:06;;;;;;;20.67;13.88;;;;;;;-0.22;nan;101263.06;4948308;28;20035;-76
2021/11/11 05:06:31;;;;;;;28.20;13.07;;;;;;;-0.17;nan;101269.84;4932707;29;20047;-76
2021/11/11 05:08:59;;;;;;;18.67;11.65;;;;;;;-0.15;nan;101273.22;4969684;28;20038;-76
2021/11/11 05:11:24;;;;;;;22.10;12.40;;;;;;;-0.18;nan;101270.75;4989594;28;20034;-76
2021/11/11 05:13:50;;;;;;;32.95;14.30;;;;;;;-0.20;nan;101269.97;4991041;28;20040;-76
2021/11/11 05:16:15;;;;;;;28.30;14.48;;;;;;;-0.28;nan;101265.94;4990022;28;20065;-76
2021/11/11 05:18:41;;;;;;;45.20;16.80;;;;;;;-0.26;nan;101263.28;4990012;28;20507;-76
2021/11/11 05:21:06;;;;;;;19.40;13.60;;;;;;;-0.34;nan;101270.53;4989398;28;20050;-76
2021/11/11 05:23:31;;;;;;;24.38;13.70;;;;;;;-0.25;nan;101270.16;4990993;28;20459;-76
2021/11/11 05:25:57;;;;;;;21.70;13.68;;;;;;;-0.26;nan;101268.50;4989990;28;20483;-76
2021/11/11 05:28:22;;;;;;;;;;;;;;;-0.23;nan;101263.16;4989667;28;20439;-76
2021/11/11 05:30:48;;;;;;;26.00;13.40;;;;;;;-0.09;nan;101275.56;4990357;28;19917;-76
2021/11/11 05:33:13;;;;;;;29.80;13.70;;;;;;;-0.06;nan;101270.25;4995298;28;20412;-76
2021/11/11 05:35:39;;;;;;;17.75;11.65;;;;;;;-0.10;nan;101268.66;4988998;28;20105;-76
2021/11/11 05:38:05;;;;;;;18.85;13.13;;;;;;;-0.18;nan;101266.41;4990239;28;20049;-76
2021/11/11 05:40:31;;;;;;;18.10;12.43;;;;;;;-0.12;nan;101278.28;4988526;28;20070;-76
2021/11/11 05:42:57;;;;;;;18.00;11.32;;;;;;;-0.07;nan;101269.41;4987846;28;20433;-76
2021/11/11 05:45:23;;;;;;;18.20;12.35;;;;;;;-0.03;nan;101263.13;4989796;28;20034;-76
2021/11/11 05:47:49;;;;;;;22.00;12.38;;;;;;;0.04;nan;101273.28;4988483;28;20045;-76
2021/11/11 05:50:15;;;;;;;;;;;;;;;0.08;nan;101287.84;4992152;28;20033;-76
2021/11/11 05:52:41;;;;;;;18.70;12.05;;;;;;;0.07;nan;101284.41;4988472;28;19918;-76
2021/11/11 05:55:07;;;;;;;17.73;12.45;;;;;;;0.02;nan;101291.53;4989044;28;20183;-76
2021/11/11 05:57:33;;;;;;;17.10;11.80;;;;;;;0.03;nan;101295.84;4986543;28;20030;-76
2021/11/11 05:59:59;;;;;;;17.95;12.27;;;;;;;-0.03;nan;101286.53;4988829;28;20086;-76
2021/11/11 06:02:24;;;;;;;33.83;14.23;;;;;;;0.06;nan;101289.66;4989001;28;20073;-76
2021/11/11 06:04:50;;;;;;;19.05;12.40;;;;;;;-0.06;nan;101293.63;4989835;28;20030;-76
2021/11/11 06:07:15;;;;;;;15.90;11.45;;;;;;;-0.13;nan;101289.59;4990325;28;20105;-76
2021/11/11 06:09:41;;;;;;;18.52;13.77;;;;;;;-0.10;nan;101299.88;4991048;28;20064;-76
2021/11/11 06:12:07;;;;;;;18.60;12.60;;;;;;;-0.16;nan;101295.78;4989246;28;20046;-76
2021/11/11 06:14:32;;;;;;;15.68;11.65;;;;;;;-0.11;nan;101295.59;4989526;28;20065;-76
2021/11/11 06:16:59;;;;;;;;;;;;;;;-0.14;nan;101303.50;4991917;28;20073;-76
2021/11/11 06:19:25;;;;;;;15.60;10.52;;;;;;;-0.09;nan;101314.56;4990066;28;20362;-76
2021/11/11 06:21:51;;;;;;;16.35;11.07;;;;;;;-0.14;nan;101317.34;4990017;28;20077;-76
2021/11/11 06:24:16;;;;;;;17.92;12.32;;;;;;;-0.16;nan;101323.53;4987787;28;20069;-76
2021/11/11 06:26:45;;;;;;;17.35;12.00;;;;;;;-0.18;nan;101325.34;4989026;28;20388;-76
2021/11/11 06:29:10;;;;;;;21.80;12.15;;;;;;;-0.20;nan;101332.34;4995456;28;20066;-76
2021/11/11 06:31:36;;;;;;;19.50;11.73;;;;;;;-0.16;nan;101344.31;4988817;28;20042;-76
2021/11/11 06:34:01;;;;;;;15.43;10.93;;;;;;;-0.09;nan;101354.41;4989213;28;20041;-76
2021/11/11 06:36:27;;;;;;;14.98;11.15;;;;;;;-0.03;nan;101363.69;4988541;28;20034;-76
2021/11/11 06:38:53;;;;;;;14.50;11.15;;;;;;;0.10;nan;101359.69;4995239;28;20096;-76
2021/11/11 06:41:18;;;;;;;23.85;13.60;;;;;;;0.17;nan;101357.69;4988997;28;20027;-76
2021/11/11 06:43:44;;;;;;;18.00;12.18;;;;;;;0.09;nan;101352.78;4987921;28;20432;-76
2021/11/11 06:46:10;;;;;;;68.82;18.48;;;;;;;0.15;nan;101362.94;4986974;28;20034;-76
2021/11/11 06:48:36;;;;;;;42.53;16.20;;;;;;;0.11;nan;101356.16;4988663;28;20031;-76
2021/11/11 06:51:03;;;;;;;50.58;16.30;;;;;;;0.15;nan;101354.28;4992537;28;20042;-76
2021/11/11 06:53:28;;;;;;;52.28;15.38;;;;;;;-0.02;nan;101352.41;4989220;28;20431;-76
2021/11/11 06:55:54;;;;;;;55.85;16.95;;;;;;;-0.05;nan;101355.97;4988946;28;20031;-76
2021/11/11 06:58:22;;;;;;;37.05;15.68;;;;;;;-0.09;nan;101354.41;4988329;28;20040;-76
2021/11/11 07:00:52;;;;;;;47.17;19.63;;;;;;;-0.22;nan;101364.44;4989210;28;20454;-76
2021/11/11 07:03:17;;;;;;;32.05;16.90;;;;;;;-0.27;nan;101366.38;4987994;28;20507;-76
2021/11/11 07:05:44;;;;;;;41.33;16.85;;;;;;;-0.18;nan;101359.13;4997842;28;20080;-76
2021/11/11 07:08:11;;;;;;;49.97;18.60;;;;;;;-0.18;nan;101357.38;4986172;28;20435;-75
2021/11/11 07:10:37;;;;;;;47.30;18.50;;;;;;;-0.25;nan;101363.72;4986247;28;20125;-75
2021/11/11 07:13:03;;;;;;;40.03;19.13;;;;;;;-0.18;nan;101361.72;4988817;28;20038;-75
2021/11/11 07:15:28;;;;;;;29.17;17.05;;;;;;;-0.12;nan;101348.47;4985058;28;20027;-75
2021/11/11 07:17:54;;;;;;;27.92;15.18;;;;;;;-0.04;nan;101354.22;4989867;28;20050;-75
2021/11/11 07:20:19;;;;;;;30.92;16.35;;;;;;;-0.01;nan;101360.13;4985988;28;20031;-75
2021/11/11 07:22:46;;;;;;;28.00;16.25;;;;;;;-0.01;nan;101360.13;4987745;28;20464;-75
2021/11/11 07:25:13;;;;;;;19.85;13.93;;;;;;;-0.03;nan;101364.53;4986913;28;20065;-75
2021/11/11 07:27:39;;;;;;;27.25;14.57;;;;;;;0.09;nan;101357.13;4988762;28;20031;-75
2021/11/11 07:30:11;;;;;;;19.45;13.35;;;;;;;0.17;nan;101355.09;4986430;28;20058;-75
2021/11/11 07:32:37;;;;;;;25.90;15.25;;;;;;;0.29;nan;101351.13;4988298;28;20034;-75
2021/11/11 07:35:03;;;;;;;21.27;12.77;;;;;;;0.41;nan;101359.22;4986743;28;20038;-75
2021/11/11 07:37:29;;;;;;;20.23;13.13;;;;;;;0.50;nan;101347.59;4988978;28;20042;-75
2021/11/11 07:39:54;;;;;;;20.70;12.13;;;;;;;0.63;nan;101348.72;4988170;28;20073;-75
2021/11/11 07:42:21;;;;;;;21.13;12.30;;;;;;;0.68;nan;101347.69;4988016;28;20487;-75
2021/11/11 07:44:47;;;;;;;16.73;11.00;;;;;;;0.79;nan;101350.66;4987596;28;20507;-75
2021/11/11 07:47:16;;;;;;;20.75;12.20;;;;;;;0.88;nan;101355.44;4988609;28;20152;-75
2021/11/11 07:49:41;;;;;;;18.80;10.82;;;;;;;0.95;nan;101356.84;4993291;28;20046;-75
2021/11/11 07:52:08;;;;;;;17.55;10.85;;;;;;;1.01;nan;101363.53;4991337;28;20442;-75
2021/11/11 07:54:33;;;;;;;17.40;9.80;;;;;;;1.06;nan;101370.22;4992565;28;20030;-75
2021/11/11 07:56:59;;;;;;;13.85;8.95;;;;;;;1.17;nan;101372.34;4990719;28;20775;-75
2021/11/11 07:59:24;;;;;;;16.38;10.63;;;;;;;1.15;nan;101375.94;4992495;28;20042;-75
2021/11/11 08:01:49;;;;;;;15.27;9.65;;;;;;;1.22;nan;101377.34;4989164;28;20042;-75
2021/11/11 08:04:14;;;;;;;26.55;11.32;;;;;;;1.23;nan;101373.81;4988417;28;20041;-75
2021/11/11 08:06:40;;;;;;;17.52;10.07;;;;;;;1.24;nan;101375.50;4988683;28;20057;-75
2021/11/11 08:09:05;;;;;;;31.85;11.73;;;;;;;1.40;nan;101367.81;4994480;28;20038;-75
2021/11/11 08:11:31;;;;;;;19.42;11.05;;;;;;;1.42;nan;101369.44;4988546;28;20034;-75
2021/11/11 08:13:56;;;;;;;16.92;10.85;;;;;;;1.44;nan;101377.19;4979540;28;20578;-75
2021/11/11 08:16:21;;;;;;;22.42;10.90;;;;;;;1.43;nan;101378.97;4997727;28;20443;-75
2021/11/11 08:18:47;;;;;;;16.92;10.80;;;;;;;1.41;nan;101383.41;4993048;28;20034;-75
2021/11/11 08:21:12;;;;;;;17.00;11.35;;;;;;;1.37;nan;101378.41;4988110;28;20042;-75
2021/11/11 08:23:37;;;;;;;16.42;10.15;;;;;;;1.48;nan;101383.97;4991984;28;20142;-76
2021/11/11 08:26:05;;;;;;;16.63;10.45;;;;;;;1.42;nan;101384.22;4992214;28;20624;-75
2021/11/11 08:28:31;;;;;;;24.55;10.18;;;;;;;1.49;nan;101381.25;4997221;28;20069;-75
2021/11/11 08:30:57;;;;;;;16.08;9.82;;;;;;;1.54;nan;101386.25;4993080;28;20030;-75
2021/11/11 08:33:22;;;;;;;14.07;9.10;;;;;;;1.58;nan;101386.97;4991905;28;20038;-75
2021/11/11 08:35:49;;;;;;;16.58;10.52;;;;;;;1.60;nan;101390.34;4990936;28;20041;-75
2021/11/11 08:38:14;;;;;;;17.85;11.48;;;;;;;1.56;nan;101399.22;4990995;28;20503;-76
2021/11/11 08:40:41;;;;;;;25.35;11.32;;;;;;;1.62;nan;101388.50;4989787;28;20043;-75
2021/11/11 08:43:06;;;;;;;24.80;12.15;;;;;;;1.49;nan;101402.13;4990816;28;20496;-75
2021/11/11 08:45:32;;;;;;;20.90;12.23;;;;;;;1.41;nan;101403.41;4991438;28;20077;-76
2021/11/11 08:47:58;;;;;;;33.33;12.35;;;;;;;1.35;nan;101398.47;4991634;28;20069;-75
2021/11/11 08:50:28;;;;;;;17.83;11.75;;;;;;;1.31;nan;101409.94;4995588;28;20062;-75
2021/11/11 08:52:54;;;;;;;31.88;13.23;;;;;;;1.35;nan;101407.13;4991879;28;20042;-76
2021/11/11 08:55:24;;;;;;;22.48;12.50;;;;;;;1.27;nan;101411.84;4990594;28;20026;-75
2021/11/11 08:57:50;;;;;;;18.58;11.40;;;;;;;1.30;nan;101401.28;4989312;28;20122;-76
2021/11/11 09:00:20;;;;;;;15.27;10.82;;;;;;;1.35;nan;101404.50;4990671;28;20042;-75
2021/11/11 09:02:47;;;;;;;24.77;12.50;;;;;;;1.44;nan;101411.91;4988820;28;20043;-75
2021/11/11 09:05:13;;;;;;;18.02;11.63;;;;;;;1.52;nan;101413.31;4991228;28;20424;-76
2021/11/11 09:07:39;;;;;;;16.05;10.93;;;;;;;1.57;nan;101406.13;4988557;28;20038;-75
2021/11/11 09:10:18;;;;;;;17.27;10.80;;;;;;;1.71;nan;101401.09;4991562;28;20370;-76
2021/11/11 09:12:45;;;;;;;16.67;11.55;;;;;;;1.82;nan;101398.81;4990522;28;20034;-75
2021/11/11 09:15:14;;;;;;;18.17;12.40;;;;;;;1.84;nan;101393.56;4990586;28;20041;-75
2021/11/11 09:17:40;;;;;;;18.13;12.02;;;;;;;1.95;nan;101395.63;4986785;28;20206;-75
2021/11/11 09:20:07;;;;;;;18.95;11.93;;;;;;;2.01;nan;101401.38;4985239;28;20053;-76
2021/11/11 09:22:34;;;;;;;20.38;12.82;;;;;;;2.02;nan;101407.44;4974980;28;20113;-76
2021/11/11 09:25:00;;;;;;;19.23;11.63;;;;;;;2.02;nan;101408.28;4989442;28;20269;-76
2021/11/11 09:27:26;;;;;;;24.95;12.13;;;;;;;2.13;nan;101420.81;4990372;28;20034;-75
2021/11/11 09:29:52;;;;;;;39.80;14.90;;;;;;;2.15;nan;101420.75;4996384;28;20041;-76
2021/11/11 09:32:18;;;;;;;29.33;12.98;;;;;;;2.08;nan;101430.63;4989157;28;20528;-76
2021/11/11 09:34:43;;;;;;;33.60;15.65;;;;;;;2.09;nan;101427.94;5003046;28;20117;-76
2021/11/11 09:37:08;;;;;;;51.97;18.50;;;;;;;1.98;nan;101437.19;4986109;28;20399;-75
2021/11/11 09:39:34;;;;;;;31.30;15.60;;;;;;;1.90;nan;101433.19;4989849;28;20092;-75
2021/11/11 09:42:00;;;;;;;35.17;16.33;;;;;;;1.83;nan;101441.38;4989770;28;20592;-75
2021/11/11 09:44:27;;;;;;;42.60;18.95;;;;;;;1.95;nan;101450.38;4990940;28;20400;-75
2021/11/11 09:46:53;;;;;;;44.92;20.20;;;;;;;1.96;nan;101454.72;4989629;28;20038;-76
2021/11/11 09:49:20;;;;;;;;;;;;;;;2.04;nan;101450.78;4990417;28;20034;-76
2021/11/11 09:51:48;;;;;;;79.68;26.92;;;;;;;2.05;nan;101459.47;4990702;28;19925;-75
2021/11/11 09:59:26;;;;;;;61.15;24.60;;;;;;;2.11;nan;101462.63;4990577;28;20053;-75
2021/11/11 10:01:52;;;;;;;98.72;30.15;;;;;;;2.28;nan;101458.34;4989423;28;20089;-76
2021/11/11 10:04:18;;;;;;;52.92;26.17;;;;;;;2.16;nan;101462.41;4988370;28;20121;-75
2021/11/11 10:06:43;;;;;;;50.40;24.23;;;;;;;2.24;nan;101472.47;4987942;28;20121;-76
2021/11/11 10:09:18;;;;;;;51.80;25.23;;;;;;;2.19;nan;101469.22;4988495;28;20248;-76
2021/11/11 10:11:50;;;;;;;52.78;25.50;;;;;;;2.08;nan;101469.75;4988729;28;20038;-76
2021/11/11 10:14:19;;;;;;;83.10;27.67;;;;;;;2.29;nan;101463.50;4984767;28;20030;-76
2021/11/11 10:16:53;;;;;;;81.60;28.92;;;;;;;2.45;nan;101471.41;4988203;28;20517;-76
2021/11/11 10:19:19;;;;;;;56.83;24.80;;;;;;;2.49;nan;101464.28;4987494;28;20043;-75
2021/11/11 10:21:58;;;;;;;66.25;25.58;;;;;;;2.48;nan;101455.59;4989091;28;20038;-75
2021/11/11 10:24:44;;;;;;;72.18;30.77;;;;;;;2.51;nan;101450.22;4988306;28;20042;-76
2021/11/11 10:27:24;;;;;;;92.75;31.10;;;;;;;2.45;nan;101450.50;4982769;28;20039;-75
2021/11/11 10:30:08;;;;;;;69.18;29.85;;;;;;;2.33;nan;101445.91;4988423;28;20096;-75
2021/11/11 10:32:38;;;;;;;72.35;29.60;;;;;;;2.36;nan;101437.94;4987442;28;20049;-76
2021/11/11 10:35:05;;;;;;;60.47;25.95;;;;;;;2.38;nan;101430.03;4989141;28;20034;-76
2021/11/11 10:37:35;;;;;;;70.88;26.90;;;;;;;2.54;nan;101421.34;4989213;28;20046;-76
2021/11/11 10:40:03;;;;;;;75.72;28.13;;;;;;;2.58;nan;101424.66;4993621;28;20042;-76
2021/11/11 10:42:30;;;;;;;57.35;26.60;;;;;;;2.57;nan;101419.50;4987958;28;20034;-76
2021/11/11 10:44:56;;;;;;;82.55;29.80;;;;;;;2.43;nan;101421.06;4986519;28;20031;-76
2021/11/11 10:47:30;;;;;;;53.17;24.60;;;;;;;2.49;nan;101423.34;4989774;28;20093;-76
2021/11/11 10:49:56;;;;;;;62.53;26.15;;;;;;;2.58;nan;101422.03;4995142;28;20034;-75
2021/11/11 10:52:26;;;;;;;61.15;26.83;;;;;;;2.64;nan;101431.31;4996446;28;20038;-75
2021/11/11 10:54:59;;;;;;;60.95;27.92;;;;;;;2.67;nan;101424.19;5005293;28;20045;-76
2021/11/11 10:57:32;;;;;;;78.32;29.17;;;;;;;2.72;nan;101416.13;4993780;28;20041;-75
2021/11/11 11:00:16;;;;;;;68.30;26.60;;;;;;;2.78;nan;101412.34;4987499;28;20124;-75
2021/11/11 11:03:00;;;;;;;56.25;24.75;;;;;;;2.85;nan;101408.47;4988874;28;20133;-76
2021/11/11 11:05:50;;;;;;;69.40;29.50;;;;;;;2.76;nan;101402.81;4989011;28;20530;-75
2021/11/11 11:08:19;;;;;;;73.23;30.87;;;;;;;2.65;nan;101402.53;4982127;28;20046;-76
2021/11/11 11:10:46;;;;;;;60.42;26.40;;;;;;;2.73;nan;101395.13;4989634;28;20097;-76
2021/11/11 11:13:18;;;;;;;49.53;24.48;;;;;;;2.71;nan;101402.19;4989073;28;20039;-75
2021/11/11 11:15:56;;;;;;;50.10;22.23;;;;;;;2.84;nan;101396.34;4993327;28;20571;-75
2021/11/11 11:18:34;;;;;;;46.72;21.38;;;;;;;2.90;nan;101393.41;4987622;28;20042;-76
2021/11/11 11:21:05;;;;;;;57.78;25.40;;;;;;;2.95;nan;101388.78;4986346;28;20035;-76
2021/11/11 11:23:36;;;;;;;63.63;25.98;;;;;;;2.93;nan;101378.44;4994121;28;20046;-76
2021/11/11 11:26:27;;;;;;;54.45;25.48;;;;;;;2.91;nan;101376.81;4991484;28;20034;-75
2021/11/11 11:29:02;;;;;;;62.03;27.42;;;;;;;2.88;nan;101374.34;4977132;28;20061;-76
2021/11/11 11:31:35;;;;;;;87.60;29.88;;;;;;;2.93;nan;101370.59;4985917;28;20034;-76
2021/11/11 11:34:06;;;;;;;70.47;28.45;;;;;;;2.95;nan;101376.53;4993596;28;20031;-76
2021/11/11 11:36:44;;;;;;;57.20;25.40;;;;;;;2.93;nan;101382.78;4992632;28;20450;-76
2021/11/11 11:39:12;;;;;;;64.85;28.45;;;;;;;3.02;nan;101378.84;4992668;28;20557;-76
2021/11/11 11:41:41;;;;;;;63.67;27.88;;;;;;;3.15;nan;101378.09;4991377;28;20046;-75
2021/11/11 11:44:19;;;;;;;55.80;25.48;;;;;;;3.10;nan;101374.91;4991868;28;20396;-75
2021/11/11 11:49:58;;;;;;;54.80;24.75;;;;;;;3.25;nan;101377.63;4991302;28;20117;-75
2021/11/11 11:52:27;;;;;;;53.75;24.52;;;;;;;3.32;nan;101379.81;4997948;28;20346;-75
2021/11/11 11:57:27;;;;;;;60.95;28.10;;;;;;;3.31;nan;101380.75;4990129;28;20046;-75
2021/11/11 12:00:05;;;;;;;56.10;24.58;;;;;;;3.38;nan;101389.06;4992526;28;20060;-75
2021/11/11 12:02:44;;;;;;;62.35;27.45;;;;;;;3.44;nan;101399.19;4992127;28;20034;-75
2021/11/11 12:05:25;;;;;;;72.25;28.98;;;;;;;3.42;nan;101390.59;4992830;28;20560;-75